sensor_id;sensor_type;location;lat;lon;timestamp;pressure;altitude;pressure_sealevel;temperature;humidity
39341;BME280;25059;52.132;21.062;2023-09-12T05:35:15;100128.75;;;20.90;100.00
39341;BME280;25059;52.132;21.062;2023-09-12T05:38:03;100132.94;;;21.04;100.00
39341;BME280;25059;52.132;21.062;2023-09-12T05:40:47;100135.88;;;21.22;100.00
39341;BME280;25059;52.132;21.062;2023-09-12T05:43:34;100127.41;;;21.47;100.00
39341;BME280;25059;52.132;21.062;2023-09-12T05:46:18;100127.19;;;21.70;100.00
39341;BME280;25059;52.132;21.062;2023-09-12T05:49:03;100127.25;;;21.89;100.00
39341;BME280;25059;52.132;21.062;2023-09-12T05:51:47;100130.41;;;22.13;100.00
39341;BME280;25059;52.132;21.062;2023-09-12T05:54:32;100119.31;;;22.28;100.00
39341;BME280;25059;52.132;21.062;2023-09-12T05:57:16;100117.03;;;22.52;100.00
39341;BME280;25059;52.132;21.062;2023-09-12T06:00:14;100122.09;;;22.65;100.00
39341;BME280;25059;52.132;21.062;2023-09-12T06:02:59;100125.78;;;22.64;100.00
39341;BME280;25059;52.132;21.062;2023-09-12T06:05:47;100122.81;;;22.47;100.00
39341;BME280;25059;52.132;21.062;2023-09-12T06:08:41;100124.38;;;22.40;100.00
39341;BME280;25059;52.132;21.062;2023-09-12T06:12:31;100127.19;;;22.48;100.00
39341;BME280;25059;52.132;21.062;2023-09-12T06:15:17;100130.88;;;22.57;100.00
39341;BME280;25059;52.132;21.062;2023-09-12T06:18:23;100126.06;;;22.51;100.00
39341;BME280;25059;52.132;21.062;2023-09-12T06:21:16;100137.63;;;22.61;100.00
39341;BME280;25059;52.132;21.062;2023-09-12T06:24:12;100133.53;;;22.57;100.00
39341;BME280;25059;52.132;21.062;2023-09-12T06:26:57;100141.16;;;22.81;100.00
39341;BME280;25059;52.132;21.062;2023-09-12T06:29:41;100127.75;;;22.91;100.00
39341;BME280;25059;52.132;21.062;2023-09-12T06:32:36;100128.28;;;23.04;100.00
39341;BME280;25059;52.132;21.062;2023-09-12T06:35:27;100138.00;;;23.14;100.00
39341;BME280;25059;52.132;21.062;2023-09-12T06:38:14;100147.53;;;23.36;100.00
39341;BME280;25059;52.132;21.062;2023-09-12T06:41:03;100140.00;;;23.49;100.00
39341;BME280;25059;52.132;21.062;2023-09-12T06:43:48;100141.00;;;23.48;100.00
39341;BME280;25059;52.132;21.062;2023-09-12T06:46:33;100134.66;;;23.40;100.00
39341;BME280;25059;52.132;21.062;2023-09-12T06:49:23;100144.00;;;23.36;100.00
39341;BME280;25059;52.132;21.062;2023-09-12T06:52:17;100136.91;;;23.44;100.00
39341;BME280;25059;52.132;21.062;2023-09-12T06:55:01;100134.34;;;23.52;100.00
39341;BME280;25059;52.132;21.062;2023-09-12T06:57:47;100137.59;;;23.56;100.00
39341;BME280;25059;52.132;21.062;2023-09-12T07:00:42;100116.38;;;23.63;100.00
39341;BME280;25059;52.132;21.062;2023-09-12T07:03:53;100141.47;;;23.99;100.00
39341;BME280;25059;52.132;21.062;2023-09-12T07:15:30;100154.28;;;24.68;100.00
39341;BME280;25059;52.132;21.062;2023-09-12T07:18:16;100140.38;;;24.72;100.00
39341;BME280;25059;52.132;21.062;2023-09-12T07:21:16;100141.56;;;24.96;100.00
39341;BME280;25059;52.132;21.062;2023-09-12T07:24:25;100135.78;;;25.08;100.00
39341;BME280;25059;52.132;21.062;2023-09-12T07:27:25;100150.81;;;25.19;100.00
39341;BME280;25059;52.132;21.062;2023-09-12T07:30:10;100150.19;;;25.25;100.00
39341;BME280;25059;52.132;21.062;2023-09-12T07:32:56;100150.88;;;25.27;100.00
39341;BME280;25059;52.132;21.062;2023-09-12T07:35:42;100144.16;;;25.31;100.00
39341;BME280;25059;52.132;21.062;2023-09-12T07:38:27;100136.03;;;25.49;100.00
39341;BME280;25059;52.132;21.062;2023-09-12T07:41:15;100146.34;;;25.62;100.00
39341;BME280;25059;52.132;21.062;2023-09-12T07:44:01;100149.09;;;25.70;100.00
39341;BME280;25059;52.132;21.062;2023-09-12T07:46:54;100140.22;;;25.78;100.00
39341;BME280;25059;52.132;21.062;2023-09-12T07:49:44;100139.47;;;26.10;100.00
39341;BME280;25059;52.132;21.062;2023-09-12T07:52:29;100133.94;;;26.19;100.00
39341;BME280;25059;52.132;21.062;2023-09-12T07:59:27;100133.31;;;26.42;100.00
39341;BME280;25059;52.132;21.062;2023-09-12T08:19:36;100142.19;;;27.40;100.00
39341;BME280;25059;52.132;21.062;2023-09-12T08:22:28;100147.41;;;27.49;100.00
39341;BME280;25059;52.132;21.062;2023-09-12T08:29:50;100142.69;;;27.43;100.00
39341;BME280;25059;52.132;21.062;2023-09-12T08:33:14;100143.84;;;27.57;100.00
39341;BME280;25059;52.132;21.062;2023-09-12T08:40:58;100135.00;;;28.10;100.00
39341;BME280;25059;52.132;21.062;2023-09-12T09:01:07;100141.47;;;29.15;95.87
39341;BME280;25059;52.132;21.062;2023-09-12T09:04:54;100135.09;;;29.46;93.11
39341;BME280;25059;52.132;21.062;2023-09-12T09:07:58;100143.50;;;29.51;94.25
39341;BME280;25059;52.132;21.062;2023-09-12T09:11:19;100139.56;;;29.68;91.39
39341;BME280;25059;52.132;21.062;2023-09-12T09:14:06;100131.31;;;29.76;89.80
39341;BME280;25059;52.132;21.062;2023-09-12T09:16:59;100146.91;;;30.04;87.58
39341;BME280;25059;52.132;21.062;2023-09-12T09:19:46;100122.66;;;30.17;86.16
39341;BME280;25059;52.132;21.062;2023-09-12T09:22:32;100135.25;;;30.25;77.94
39341;BME280;25059;52.132;21.062;2023-09-12T09:25:18;100127.03;;;30.18;73.60
39341;BME280;25059;52.132;21.062;2023-09-12T09:28:22;100131.06;;;30.43;71.74
39341;BME280;25059;52.132;21.062;2023-09-12T09:31:20;100120.47;;;30.27;72.32
39341;BME280;25059;52.132;21.062;2023-09-12T09:34:39;100116.59;;;30.36;72.12
39341;BME280;25059;52.132;21.062;2023-09-12T09:37:27;100133.38;;;30.46;70.34
39341;BME280;25059;52.132;21.062;2023-09-12T09:40:15;100131.38;;;30.55;69.74
39341;BME280;25059;52.132;21.062;2023-09-12T09:43:06;100121.06;;;30.65;72.00
39341;BME280;25059;52.132;21.062;2023-09-12T10:06:56;100111.59;;;35.72;47.27
39341;BME280;25059;52.132;21.062;2023-09-12T10:10:05;100111.09;;;37.30;36.22
39341;BME280;25059;52.132;21.062;2023-09-12T10:12:59;100126.50;;;37.94;32.85
39341;BME280;25059;52.132;21.062;2023-09-12T10:15:45;100117.09;;;39.14;30.83
39341;BME280;25059;52.132;21.062;2023-09-12T10:18:49;100116.19;;;40.13;28.28
39341;BME280;25059;52.132;21.062;2023-09-12T10:21:57;100117.97;;;41.20;25.95
39341;BME280;25059;52.132;21.062;2023-09-12T10:24:45;100108.47;;;41.48;25.02
39341;BME280;25059;52.132;21.062;2023-09-12T10:27:48;100107.44;;;41.64;26.13
39341;BME280;25059;52.132;21.062;2023-09-12T10:31:01;100110.03;;;41.96;25.78
39341;BME280;25059;52.132;21.062;2023-09-12T10:34:00;100113.44;;;42.34;25.78
39341;BME280;25059;52.132;21.062;2023-09-12T10:36:58;100105.47;;;42.88;23.92
39341;BME280;25059;52.132;21.062;2023-09-12T10:40:31;100113.88;;;41.80;24.04
39341;BME280;25059;52.132;21.062;2023-09-12T10:43:46;100105.44;;;41.54;23.88
39341;BME280;25059;52.132;21.062;2023-09-12T10:47:35;100095.78;;;42.91;23.77
39341;BME280;25059;52.132;21.062;2023-09-12T11:02:53;100087.91;;;44.47;19.80
39341;BME280;25059;52.132;21.062;2023-09-12T11:06:01;100090.34;;;44.14;20.04
39341;BME280;25059;52.132;21.062;2023-09-12T11:12:02;100087.53;;;44.20;21.07
39341;BME280;25059;52.132;21.062;2023-09-12T11:15:14;100087.28;;;45.13;20.48
39341;BME280;25059;52.132;21.062;2023-09-12T11:18:05;100086.84;;;45.01;20.51
39341;BME280;25059;52.132;21.062;2023-09-12T11:21:00;100081.88;;;44.35;20.82
39341;BME280;25059;52.132;21.062;2023-09-12T11:23:54;100096.59;;;43.06;21.32
39341;BME280;25059;52.132;21.062;2023-09-12T11:27:05;100085.91;;;41.14;23.00
39341;BME280;25059;52.132;21.062;2023-09-12T11:30:04;100089.50;;;41.14;23.78
39341;BME280;25059;52.132;21.062;2023-09-12T11:44:50;100079.34;;;45.92;19.01
39341;BME280;25059;52.132;21.062;2023-09-12T11:47:41;100085.56;;;46.59;17.70
39341;BME280;25059;52.132;21.062;2023-09-12T11:50:31;100088.69;;;47.31;17.55
39341;BME280;25059;52.132;21.062;2023-09-12T11:53:19;100082.06;;;47.82;17.03
39341;BME280;25059;52.132;21.062;2023-09-12T11:56:06;100075.16;;;48.60;17.23
39341;BME280;25059;52.132;21.062;2023-09-12T11:58:52;100081.16;;;48.09;16.27
39341;BME280;25059;52.132;21.062;2023-09-12T12:01:37;100078.56;;;47.35;16.53
39341;BME280;25059;52.132;21.062;2023-09-12T12:04:24;100077.03;;;47.43;17.14
39341;BME280;25059;52.132;21.062;2023-09-12T12:07:11;100078.78;;;47.39;16.49
39341;BME280;25059;52.132;21.062;2023-09-12T12:09:55;100070.22;;;46.61;16.90
39341;BME280;25059;52.132;21.062;2023-09-12T12:12:45;100071.50;;;46.83;17.31
39341;BME280;25059;52.132;21.062;2023-09-12T12:15:32;100065.88;;;47.43;16.48
39341;BME280;25059;52.132;21.062;2023-09-12T12:18:28;100073.63;;;48.32;15.74
39341;BME280;25059;52.132;21.062;2023-09-12T12:21:14;100075.66;;;48.40;16.03
39341;BME280;25059;52.132;21.062;2023-09-12T12:24:00;100074.53;;;48.18;15.01
39341;BME280;25059;52.132;21.062;2023-09-12T12:27:00;100069.91;;;48.59;15.53
39341;BME280;25059;52.132;21.062;2023-09-12T12:29:46;100059.53;;;48.14;15.65
39341;BME280;25059;52.132;21.062;2023-09-12T12:32:34;100067.81;;;47.70;16.11
39341;BME280;25059;52.132;21.062;2023-09-12T12:35:22;100065.47;;;47.36;17.48
39341;BME280;25059;52.132;21.062;2023-09-12T12:38:06;100062.38;;;47.10;17.14
39341;BME280;25059;52.132;21.062;2023-09-12T12:41:16;100059.78;;;49.02;15.45
39341;BME280;25059;52.132;21.062;2023-09-12T12:44:02;100062.97;;;49.66;14.36
39341;BME280;25059;52.132;21.062;2023-09-12T12:46:54;100061.06;;;49.27;15.37
39341;BME280;25059;52.132;21.062;2023-09-12T12:49:39;100059.97;;;49.06;15.28
39341;BME280;25059;52.132;21.062;2023-09-12T12:52:33;100057.63;;;49.47;14.77
39341;BME280;25059;52.132;21.062;2023-09-12T12:55:27;100056.75;;;50.30;14.62
39341;BME280;25059;52.132;21.062;2023-09-12T12:58:13;100041.41;;;51.29;13.67
39341;BME280;25059;52.132;21.062;2023-09-12T13:00:59;100055.72;;;51.66;13.59
39341;BME280;25059;52.132;21.062;2023-09-12T13:03:44;100050.31;;;52.03;13.47
39341;BME280;25059;52.132;21.062;2023-09-12T13:06:54;100044.69;;;51.82;13.09
39341;BME280;25059;52.132;21.062;2023-09-12T13:09:39;100044.53;;;53.10;12.14
39341;BME280;25059;52.132;21.062;2023-09-12T13:12:23;100054.13;;;54.86;11.42
39341;BME280;25059;52.132;21.062;2023-09-12T13:15:09;100052.41;;;54.81;11.56
39341;BME280;25059;52.132;21.062;2023-09-12T13:17:53;100050.41;;;51.44;13.45
39341;BME280;25059;52.132;21.062;2023-09-12T13:20:38;100040.72;;;47.20;15.67
39341;BME280;25059;52.132;21.062;2023-09-12T13:23:23;100040.97;;;42.01;19.67
39341;BME280;25059;52.132;21.062;2023-09-12T13:26:10;100044.53;;;41.91;20.25
39341;BME280;25059;52.132;21.062;2023-09-12T13:28:55;100027.56;;;39.94;22.09
39341;BME280;25059;52.132;21.062;2023-09-12T13:31:39;100040.84;;;38.26;24.57
39341;BME280;25059;52.132;21.062;2023-09-12T13:34:24;100031.91;;;37.73;24.80
39341;BME280;25059;52.132;21.062;2023-09-12T13:37:09;100040.25;;;37.38;25.66
39341;BME280;25059;52.132;21.062;2023-09-12T13:39:54;100028.63;;;36.96;26.51
39341;BME280;25059;52.132;21.062;2023-09-12T13:42:39;100024.31;;;36.12;27.05
39341;BME280;25059;52.132;21.062;2023-09-12T13:45:23;100025.53;;;36.16;27.02
39341;BME280;25059;52.132;21.062;2023-09-12T13:48:08;100030.78;;;36.17;27.20
39341;BME280;25059;52.132;21.062;2023-09-12T13:50:53;100030.94;;;35.92;27.88
39341;BME280;25059;52.132;21.062;2023-09-12T13:53:37;100023.69;;;35.98;28.89
39341;BME280;25059;52.132;21.062;2023-09-12T13:56:22;100029.34;;;36.15;28.70
39341;BME280;25059;52.132;21.062;2023-09-12T13:59:07;100027.53;;;37.09;27.47
39341;BME280;25059;52.132;21.062;2023-09-12T14:01:51;100031.81;;;43.07;21.86
39341;BME280;25059;52.132;21.062;2023-09-12T14:04:36;100031.53;;;46.46;19.01
39341;BME280;25059;52.132;21.062;2023-09-12T14:07:20;100049.69;;;49.24;16.36
39341;BME280;25059;52.132;21.062;2023-09-12T14:10:07;100053.59;;;51.33;14.10
39341;BME280;25059;52.132;21.062;2023-09-12T14:12:51;100067.31;;;52.84;12.56
39341;BME280;25059;52.132;21.062;2023-09-12T14:15:36;100054.78;;;53.55;12.40
39341;BME280;25059;52.132;21.062;2023-09-12T14:18:21;100036.47;;;49.81;14.62
39341;BME280;25059;52.132;21.062;2023-09-12T14:21:06;100049.44;;;48.49;15.76
39341;BME280;25059;52.132;21.062;2023-09-12T14:23:50;100043.06;;;49.85;15.12
39341;BME280;25059;52.132;21.062;2023-09-12T14:26:35;100044.75;;;51.23;14.60
39341;BME280;25059;52.132;21.062;2023-09-12T14:29:23;100047.31;;;46.51;17.04
39341;BME280;25059;52.132;21.062;2023-09-12T14:32:09;100042.69;;;42.63;20.45
39341;BME280;25059;52.132;21.062;2023-09-12T14:34:53;100037.53;;;41.53;21.92
39341;BME280;25059;52.132;21.062;2023-09-12T14:37:38;100026.53;;;39.78;23.26
39341;BME280;25059;52.132;21.062;2023-09-12T14:40:23;100034.53;;;39.53;23.73
39341;BME280;25059;52.132;21.062;2023-09-12T14:43:08;100040.63;;;41.62;21.75
39341;BME280;25059;52.132;21.062;2023-09-12T14:45:53;100034.84;;;43.16;20.43
39341;BME280;25059;52.132;21.062;2023-09-12T14:48:38;100041.88;;;40.50;22.18
39341;BME280;25059;52.132;21.062;2023-09-12T14:51:23;100040.91;;;39.15;24.82
39341;BME280;25059;52.132;21.062;2023-09-12T14:54:09;100045.56;;;38.13;25.34
39341;BME280;25059;52.132;21.062;2023-09-12T14:56:54;100049.94;;;36.82;26.69
39341;BME280;25059;52.132;21.062;2023-09-12T14:59:39;100050.81;;;36.30;27.54
39341;BME280;25059;52.132;21.062;2023-09-12T15:02:25;100029.44;;;38.51;25.52
39341;BME280;25059;52.132;21.062;2023-09-12T15:05:16;100042.28;;;38.45;25.42
39341;BME280;25059;52.132;21.062;2023-09-12T15:08:00;100039.13;;;38.36;25.94
39341;BME280;25059;52.132;21.062;2023-09-12T15:10:49;100030.13;;;38.58;26.15
39341;BME280;25059;52.132;21.062;2023-09-12T15:13:33;100013.59;;;40.00;24.62
39341;BME280;25059;52.132;21.062;2023-09-12T15:16:18;100025.19;;;41.86;22.31
39341;BME280;25059;52.132;21.062;2023-09-12T15:19:03;100027.34;;;43.16;21.50
39341;BME280;25059;52.132;21.062;2023-09-12T15:21:48;100044.00;;;43.76;21.17
39341;BME280;25059;52.132;21.062;2023-09-12T15:24:32;100048.38;;;43.87;20.99
39341;BME280;25059;52.132;21.062;2023-09-12T15:27:17;100039.00;;;43.78;21.19
39341;BME280;25059;52.132;21.062;2023-09-12T15:30:02;100047.09;;;42.90;22.13
